Time;durP1;ratioP1;P1;durP2;ratioP2;P2;SDS_P1;SDS_P2;PMS_P1;PMS_P2;Temp;Humidity;BMP_temperature;BMP_pressure;BME280_temperature;BME280_humidity;BME280_pressure;Samples;Min_cycle;Max_cycle;Signal;HPM_P1;HPM_P2
2022/08/20 00:01:55;;;;;;;9.60;7.80;;;;;;;22.46;70.20;99682.81;30871286;28;96874;-57
2022/08/20 00:16:55;;;;;;;10.40;6.00;;;;;;;22.29;70.77;99678.34;30870913;28;97036;-63
2022/08/20 00:31:56;;;;;;;9.07;6.60;;;;;;;21.78;70.53;99683.34;30869805;28;97203;-58
2022/08/20 00:46:56;;;;;;;11.13;6.20;;;;;;;21.43;71.71;99688.13;30865954;28;97244;-62
2022/08/20 01:01:59;;;;;;;7.30;5.75;;;;;;;21.44;72.10;99692.44;30866184;28;96789;-57
2022/08/20 01:17:05;;;;;;;11.27;7.03;;;;;;;21.26;72.14;99728.00;30863975;28;96777;-57
2022/08/20 01:32:06;;;;;;;11.40;6.90;;;;;;;21.00;73.01;99724.16;30863274;28;97327;-66
2022/08/20 01:47:30;;;;;;;14.35;7.68;;;;;;;20.85;73.76;99706.63;30860984;28;96783;-58
2022/08/20 02:02:30;;;;;;;13.37;7.93;;;;;;;20.87;74.17;99676.59;30859571;28;97517;-58
2022/08/20 02:17:30;;;;;;;13.90;7.50;;;;;;;20.89;74.66;99667.16;30859320;28;96826;-57
2022/08/20 02:32:31;;;;;;;13.13;7.83;;;;;;;20.93;74.90;99660.19;30857723;28;96725;-58
2022/08/20 02:47:31;;;;;;;15.13;8.80;;;;;;;20.85;75.28;99663.31;30856056;28;97400;-57
2022/08/20 03:02:31;;;;;;;16.40;8.53;;;;;;;20.94;75.54;99625.78;30855165;28;97319;-58
2022/08/20 03:17:32;;;;;;;15.73;9.27;;;;;;;20.99;75.92;99654.81;30853590;28;96861;-57
2022/08/20 03:32:32;;;;;;;16.27;10.97;;;;;;;20.92;76.26;99661.22;30853389;28;98434;-62
2022/08/20 03:47:33;;;;;;;15.87;10.77;;;;;;;20.98;76.15;99677.56;30850724;28;96808;-68
2022/08/20 04:02:33;;;;;;;28.33;19.30;;;;;;;20.93;76.12;99664.78;30969130;28;97230;-57
2022/08/20 04:17:35;;;;;;;25.13;17.63;;;;;;;20.87;76.32;99663.91;30974104;28;96677;-57
2022/08/20 04:32:42;;;;;;;19.87;14.10;;;;;;;20.80;76.39;99706.56;30990107;28;96595;-67
2022/08/20 04:47:43;;;;;;;19.77;11.23;;;;;;;20.67;77.07;99694.19;30987978;28;96754;-58
2022/08/20 05:02:43;;;;;;;16.17;11.10;;;;;;;20.59;77.52;99711.66;30987205;28;97366;-57
2022/08/20 05:17:44;;;;;;;20.93;15.30;;;;;;;20.65;77.26;99722.56;30985518;28;96694;-58
2022/08/20 05:32:45;;;;;;;33.37;22.60;;;;;;;21.02;77.21;99711.19;30984108;28;96746;-58
2022/08/20 05:47:47;;;;;;;40.57;25.87;;;;;;;21.28;76.90;99702.31;30976757;28;97365;-58
2022/08/20 06:18:08;;;;;;;33.73;22.60;;;;;;;22.39;75.41;99720.19;30856030;28;97648;-59
2022/08/20 06:33:08;;;;;;;34.10;23.43;;;;;;;22.67;74.08;99727.19;30849516;28;97163;-59
2022/08/20 06:48:12;;;;;;;32.72;22.35;;;;;;;22.96;73.41;99729.50;30851846;28;97077;-59
2022/08/20 07:03:13;;;;;;;34.53;23.10;;;;;;;23.26;72.29;99722.63;30960497;28;97912;-59
2022/08/20 07:18:13;;;;;;;36.57;24.90;;;;;;;23.79;71.03;99725.22;30969786;28;97458;-65
2022/08/20 07:33:14;;;;;;;32.72;22.00;;;;;;;24.49;69.60;99725.53;30965264;28;97491;-60
2022/08/20 07:48:14;;;;;;;33.08;21.67;;;;;;;24.91;67.65;99726.28;30962321;28;96764;-59
2022/08/20 08:03:15;;;;;;;28.33;20.00;;;;;;;25.23;66.33;99746.06;30873650;28;96926;-62
2022/08/20 08:18:20;;;;;;;29.33;19.97;;;;;;;25.76;64.64;99753.75;30869438;28;96735;-62
2022/08/20 08:33:27;;;;;;;25.50;19.50;;;;;;;27.77;60.72;99735.34;30863493;28;97632;-61
2022/08/20 08:48:49;;;;;;;26.80;18.87;;;;;;;29.78;56.90;99748.13;30863429;28;97523;-62
2022/08/20 09:03:50;;;;;;;26.83;19.93;;;;;;;31.64;50.83;99744.88;30877851;28;96908;-62
2022/08/20 09:18:51;;;;;;;27.33;20.10;;;;;;;33.36;46.27;99742.34;30860282;28;97451;-61
2022/08/20 09:33:52;;;;;;;22.25;17.67;;;;;;;33.58;42.80;99752.25;30856316;28;97294;-60
2022/08/20 09:48:52;;;;;;;18.33;15.55;;;;;;;32.68;42.64;99737.63;30853915;28;97625;-60
2022/08/20 10:03:53;;;;;;;21.05;17.40;;;;;;;31.12;44.95;99745.56;30857460;28;97424;-60
2022/08/20 10:18:53;;;;;;;21.23;15.35;;;;;;;30.49;46.74;99736.56;30855819;28;96656;-60
2022/08/20 10:33:53;;;;;;;20.85;15.65;;;;;;;31.46;46.42;99748.72;30855341;28;97380;-60
2022/08/20 10:48:54;;;;;;;18.30;16.38;;;;;;;30.71;46.82;99755.75;30852741;28;96787;-60
2022/08/20 11:03:54;;;;;;;21.40;16.85;;;;;;;29.63;47.75;99777.53;30853985;28;97520;-60
2022/08/20 11:18:56;;;;;;;23.03;16.53;;;;;;;29.33;49.04;99752.38;30852817;28;97429;-60
2022/08/20 11:33:56;;;;;;;20.98;15.98;;;;;;;29.89;48.76;99752.28;30867499;28;97548;-60
2022/08/20 11:48:57;;;;;;;18.88;15.90;;;;;;;32.04;46.39;99738.38;30872105;28;96787;-60
2022/08/20 12:03:58;;;;;;;19.05;15.27;;;;;;;33.75;41.98;99728.44;30870816;28;96777;-60
2022/08/20 12:18:58;;;;;;;15.98;14.15;;;;;;;34.00;40.76;99718.31;30868800;28;96885;-60
2022/08/20 12:33:58;;;;;;;16.45;13.27;;;;;;;34.60;38.91;99706.97;30866797;28;96805;-59
2022/08/20 12:48:59;;;;;;;17.05;14.85;;;;;;;34.79;38.39;99692.56;30864752;28;97529;-60
2022/08/20 13:03:59;;;;;;;15.75;12.55;;;;;;;35.57;37.06;99684.31;30864977;28;101011;-60
2022/08/20 13:19:00;;;;;;;20.67;13.68;;;;;;;35.74;35.84;99674.88;30862728;28;96669;-60
2022/08/20 13:34:00;;;;;;;16.35;12.55;;;;;;;35.77;35.73;99665.06;30860835;28;97456;-60
2022/08/20 13:49:00;;;;;;;15.70;13.02;;;;;;;34.95;36.08;99656.72;30858890;28;101898;-60
2022/08/20 14:04:01;;;;;;;16.58;12.18;;;;;;;33.06;38.80;99658.78;30858073;28;97328;-60
2022/08/20 14:19:01;;;;;;;17.15;12.27;;;;;;;30.75;41.89;99686.41;30856551;28;96713;-60
2022/08/20 14:34:01;;;;;;;14.80;11.38;;;;;;;29.61;43.91;99693.88;30856383;28;97022;-61
2022/08/20 14:49:02;;;;;;;15.20;11.43;;;;;;;28.31;46.38;99709.34;30853906;28;97386;-60
2022/08/20 15:04:02;;;;;;;20.50;14.50;;;;;;;25.74;53.50;99729.47;30853692;28;96751;-60
2022/08/20 15:19:03;;;;;;;13.23;7.18;;;;;;;23.77;58.61;99769.00;30852463;28;96859;-60
2022/08/20 15:34:03;;;;;;;11.27;6.32;;;;;;;23.24;62.48;99768.28;30852626;28;97648;-60
2022/08/20 15:49:03;;;;;;;14.57;8.23;;;;;;;23.26;63.79;99804.13;30849504;28;106004;-60
2022/08/20 16:04:04;;;;;;;;;;;;;;;23.25;65.43;99768.00;30850616;28;96655;-61
2022/08/20 16:19:06;;;;;;;8.23;4.40;;;;;;;23.01;66.58;99781.16;30863300;28;96684;-60
2022/08/20 16:34:27;;;;;;;8.13;4.03;;;;;;;22.60;68.14;99776.28;30867565;28;96796;-60
2022/08/20 16:49:30;;;;;;;8.67;4.80;;;;;;;22.31;69.11;99797.47;30866203;28;97440;-60
2022/08/20 17:04:31;;;;;;;10.43;4.50;;;;;;;21.94;70.44;99809.03;30865166;28;97283;-60
2022/08/20 17:19:32;;;;;;;7.43;5.30;;;;;;;21.72;72.13;99820.72;30862933;28;96683;-60
2022/08/20 17:34:46;;;;;;;8.70;4.87;;;;;;;21.57;73.09;99796.97;30860557;28;97572;-60
2022/08/20 17:49:58;;;;;;;7.03;3.90;;;;;;;21.42;74.26;99831.94;30859385;28;96637;-59
2022/08/20 18:04:59;;;;;;;5.73;4.03;;;;;;;21.36;74.94;99827.53;30859003;28;97497;-59
2022/08/20 18:20:11;;;;;;;6.93;4.22;;;;;;;21.36;75.62;99841.09;30857466;28;96752;-59
2022/08/20 18:35:29;;;;;;;7.20;3.77;;;;;;;21.28;75.85;99878.38;30855405;28;97000;-60
2022/08/20 18:50:41;;;;;;;5.77;3.43;;;;;;;21.33;76.07;99871.41;30855302;28;96702;-59
2022/08/20 19:05:44;;;;;;;6.10;3.23;;;;;;;21.27;76.18;99878.63;30852850;28;97507;-59
2022/08/20 19:20:55;;;;;;;7.03;4.33;;;;;;;21.15;76.50;99875.22;30852348;28;96796;-60
2022/08/20 19:36:11;;;;;;;6.77;4.60;;;;;;;21.10;76.80;99884.06;30850536;28;98159;-59
2022/08/20 19:51:23;;;;;;;8.27;4.33;;;;;;;21.09;76.90;99861.59;30858569;28;97495;-60
2022/08/20 20:06:25;;;;;;;8.67;6.20;;;;;;;21.15;77.40;99859.78;30870351;28;97307;-60
2022/08/20 20:21:41;;;;;;;8.80;5.77;;;;;;;21.29;77.24;99843.97;30867698;28;96585;-59
2022/08/20 20:36:46;;;;;;;12.97;8.83;;;;;;;21.27;76.95;99833.41;30866072;28;96978;-60
2022/08/20 20:51:52;;;;;;;11.97;8.67;;;;;;;21.20;77.14;99831.94;30865632;28;96691;-59
2022/08/20 21:06:55;;;;;;;11.93;9.00;;;;;;;21.19;77.14;99828.41;30864126;28;96831;-59
2022/08/20 21:21:55;;;;;;;10.50;7.40;;;;;;;21.14;77.13;99831.03;30864359;28;96714;-59
2022/08/20 21:36:55;;;;;;;8.27;6.27;;;;;;;21.01;77.49;99831.38;30861862;28;96774;-59
2022/08/20 21:51:57;;;;;;;8.57;6.37;;;;;;;20.89;77.47;99835.00;30862243;28;97431;-60
2022/08/20 22:06:57;;;;;;;8.60;6.00;;;;;;;20.83;77.75;99836.00;30860228;28;97244;-60
2022/08/20 22:21:57;;;;;;;8.67;7.03;;;;;;;20.89;77.82;99836.91;30858832;28;96671;-59
2022/08/20 22:37:00;;;;;;;9.67;6.93;;;;;;;20.79;77.97;99832.16;30857502;28;97351;-60
2022/08/20 22:52:00;;;;;;;7.23;6.37;;;;;;;20.70;78.29;99793.84;30855570;28;96686;-59
2022/08/20 23:07:03;;;;;;;8.50;5.97;;;;;;;20.60;78.20;99826.16;30855669;28;97678;-59
2022/08/20 23:22:04;;;;;;;8.93;6.80;;;;;;;20.47;78.33;99827.25;30859009;28;97446;-59
2022/08/20 23:37:05;;;;;;;10.60;7.13;;;;;;;20.29;78.63;99821.00;30874632;28;96824;-60
2022/08/20 23:52:06;;;;;;;8.70;6.80;;;;;;;20.25;78.68;99832.56;30873623;28;96788;-59
